createdAt,value
2016-08-29T00:00:23.840Z,744.8
2016-08-29T00:01:23.841Z,744.76
2016-08-29T00:02:23.834Z,744.79
2016-08-29T00:03:23.820Z,744.77
2016-08-29T00:04:23.813Z,744.75
2016-08-29T00:05:23.814Z,744.73
2016-08-29T00:06:23.800Z,744.73
2016-08-29T00:07:23.799Z,744.74
2016-08-29T00:08:23.792Z,744.71
2016-08-29T00:09:23.778Z,744.74
2016-08-29T00:10:23.771Z,744.73
2016-08-29T00:11:23.766Z,744.74
2016-08-29T00:12:23.759Z,744.68
2016-08-29T00:13:23.750Z,744.69
2016-08-29T00:14:23.746Z,744.67
2016-08-29T00:15:23.738Z,744.73
2016-08-29T00:16:23.733Z,744.62
2016-08-29T00:17:23.733Z,744.65
2016-08-29T00:18:23.726Z,744.67
2016-08-29T00:19:23.712Z,744.68
2016-08-29T00:20:23.706Z,744.68
2016-08-29T00:21:23.697Z,744.67
2016-08-29T00:22:23.690Z,744.71
2016-08-29T00:23:23.686Z,744.67
2016-08-29T00:24:23.685Z,744.69
2016-08-29T00:25:23.970Z,744.68
2016-08-29T00:26:23.663Z,744.64
2016-08-29T00:27:23.658Z,744.65
2016-08-29T00:28:23.657Z,744.66
2016-08-29T00:29:23.649Z,744.62
2016-08-29T00:30:23.643Z,744.59
2016-08-29T00:31:23.630Z,744.59
2016-08-29T00:32:23.628Z,744.61
2016-08-29T00:33:23.621Z,744.57
2016-08-29T00:34:23.614Z,744.56
2016-08-29T00:35:23.607Z,744.55
2016-08-29T00:36:23.599Z,744.55
2016-08-29T00:37:23.592Z,744.5
2016-08-29T00:38:23.578Z,744.47
2016-08-29T00:39:23.578Z,744.47
2016-08-29T00:40:23.570Z,744.44
2016-08-29T00:41:23.556Z,744.52
2016-08-29T00:42:23.550Z,744.48
2016-08-29T00:43:23.542Z,744.49
2016-08-29T00:44:23.535Z,744.52
2016-08-29T00:45:23.528Z,744.54
2016-08-29T00:46:23.527Z,744.51
2016-08-29T00:47:23.519Z,744.54
2016-08-29T00:48:23.506Z,744.55
2016-08-29T00:49:23.506Z,744.51
2016-08-29T00:50:23.493Z,744.49
2016-08-29T00:51:23.487Z,744.47
2016-08-29T00:52:23.486Z,744.46
2016-08-29T00:53:23.479Z,744.43
2016-08-29T00:54:23.473Z,744.38
2016-08-29T00:55:23.466Z,744.38
2016-08-29T00:56:23.452Z,744.39
2016-08-29T00:57:23.446Z,744.42
2016-08-29T00:58:23.446Z,744.41
2016-08-29T00:59:23.433Z,744.38
2016-08-29T01:00:23.427Z,744.39
2016-08-29T01:01:23.427Z,744.4
2016-08-29T01:02:23.420Z,744.35
2016-08-29T01:03:23.407Z,744.36
2016-08-29T01:04:23.409Z,744.33
2016-08-29T01:05:23.394Z,744.37
2016-08-29T01:06:23.396Z,744.36
2016-08-29T01:07:23.388Z,744.29
2016-08-29T01:08:23.382Z,744.29
2016-08-29T01:09:23.368Z,744.27
2016-08-29T01:10:23.361Z,744.25
2016-08-29T01:11:23.362Z,744.23
2016-08-29T01:12:23.354Z,744.22
2016-08-29T01:13:23.342Z,744.22
2016-08-29T01:14:23.335Z,744.21
2016-08-29T01:15:23.327Z,744.19
2016-08-29T01:16:23.327Z,744.2
2016-08-29T01:17:23.320Z,744.15
2016-08-29T01:18:23.305Z,744.17
2016-08-29T01:19:23.307Z,744.13
2016-08-29T01:20:23.297Z,744.16
2016-08-29T01:21:23.284Z,744.12
2016-08-29T01:22:23.279Z,744.16
2016-08-29T01:23:23.270Z,744.13
2016-08-29T01:24:23.269Z,744.11
2016-08-29T01:25:23.256Z,744.12
2016-08-29T01:26:23.256Z,744.12
2016-08-29T01:27:23.240Z,744.11
2016-08-29T01:28:23.241Z,744.09
2016-08-29T01:29:23.232Z,744.07
2016-08-29T01:30:23.227Z,744.07
2016-08-29T01:31:23.213Z,744.05
2016-08-29T01:32:23.214Z,744.04
2016-08-29T01:33:23.207Z,744
2016-08-29T01:34:23.200Z,743.98
2016-08-29T01:35:23.187Z,744.02
2016-08-29T01:36:23.179Z,743.99
2016-08-29T01:37:23.180Z,743.98
2016-08-29T01:38:23.173Z,743.96
2016-08-29T01:39:23.159Z,743.98
2016-08-29T01:40:23.153Z,743.97
2016-08-29T01:41:23.155Z,743.95
2016-08-29T01:42:23.141Z,743.94
2016-08-29T01:43:23.142Z,743.94
2016-08-29T01:44:23.129Z,743.89
2016-08-29T01:45:23.121Z,743.89
2016-08-29T01:46:23.122Z,743.9
2016-08-29T01:47:23.117Z,743.9
2016-08-29T01:48:23.122Z,743.93
2016-08-29T01:49:23.095Z,743.92
2016-08-29T01:50:23.091Z,743.9
2016-08-29T01:51:23.085Z,743.89
2016-08-29T01:52:23.085Z,743.88
2016-08-29T01:53:23.079Z,743.88
2016-08-29T01:54:23.073Z,743.91
2016-08-29T01:55:23.066Z,743.91
2016-08-29T01:56:23.052Z,743.92
2016-08-29T01:57:23.048Z,743.87
2016-08-29T01:58:23.040Z,743.88
2016-08-29T01:59:23.042Z,743.88
2016-08-29T02:00:23.028Z,743.9
2016-08-29T02:01:23.029Z,743.85
2016-08-29T02:02:23.016Z,743.87
2016-08-29T02:03:23.018Z,743.89
2016-08-29T02:04:23.004Z,743.85
2016-08-29T02:05:22.999Z,743.85
2016-08-29T02:06:22.992Z,743.9
2016-08-29T02:07:22.986Z,743.83
2016-08-29T02:08:22.987Z,743.86
2016-08-29T02:09:22.982Z,743.88
2016-08-29T02:10:22.976Z,743.88
2016-08-29T02:11:22.968Z,743.88
2016-08-29T02:12:22.956Z,743.88
2016-08-29T02:13:22.957Z,743.89
2016-08-29T02:14:22.950Z,743.87
2016-08-29T02:15:22.938Z,743.85
2016-08-29T02:16:22.950Z,743.86
2016-08-29T02:17:22.932Z,743.87
2016-08-29T02:18:22.924Z,743.88
2016-08-29T02:19:22.913Z,743.86
2016-08-29T02:20:22.905Z,743.86
2016-08-29T02:21:22.900Z,743.81
2016-08-29T02:22:22.899Z,743.87
2016-08-29T02:23:22.886Z,743.9
2016-08-29T02:24:22.887Z,743.9
2016-08-29T02:25:22.874Z,743.91
2016-08-29T02:26:22.874Z,743.89
2016-08-29T02:27:22.860Z,743.93
2016-08-29T02:28:22.862Z,743.9
2016-08-29T02:29:22.854Z,743.88
2016-08-29T02:30:22.848Z,743.85
2016-08-29T02:31:22.841Z,743.86
2016-08-29T02:32:22.834Z,743.85
2016-08-29T02:33:22.827Z,743.85
2016-08-29T02:34:22.814Z,743.87
2016-08-29T02:35:22.805Z,743.84
2016-08-29T02:36:22.798Z,743.86
2016-08-29T02:37:22.799Z,743.85
2016-08-29T02:38:22.792Z,743.87
2016-08-29T02:39:22.780Z,743.85
2016-08-29T02:40:22.778Z,743.8
2016-08-29T02:41:22.764Z,743.86
2016-08-29T02:42:22.759Z,743.83
2016-08-29T02:43:22.752Z,743.83
2016-08-29T02:44:22.743Z,743.79
2016-08-29T02:45:22.738Z,743.8
2016-08-29T02:46:22.738Z,743.75
2016-08-29T02:47:22.724Z,743.77
2016-08-29T02:48:22.718Z,743.75
2016-08-29T02:49:22.719Z,743.77
2016-08-29T02:50:22.705Z,743.78
2016-08-29T02:51:22.698Z,743.78
2016-08-29T02:52:22.699Z,743.75
2016-08-29T02:53:22.693Z,743.73
2016-08-29T02:54:22.687Z,743.62
2016-08-29T02:55:22.673Z,743.61
2016-08-29T02:56:22.667Z,743.58
2016-08-29T02:57:22.661Z,743.54
2016-08-29T02:58:22.654Z,743.56
2016-08-29T02:59:22.654Z,743.63
2016-08-29T03:00:22.649Z,743.7
2016-08-29T03:01:22.642Z,743.69
2016-08-29T03:02:22.634Z,743.73
2016-08-29T03:03:22.622Z,743.71
2016-08-29T03:04:22.616Z,743.72
2016-08-29T03:05:22.616Z,743.72
2016-08-29T03:06:22.601Z,743.69
2016-08-29T03:07:22.596Z,743.7
2016-08-29T03:08:22.589Z,743.72
2016-08-29T03:09:22.589Z,743.71
2016-08-29T03:10:22.577Z,743.73
2016-08-29T03:11:22.577Z,743.72
2016-08-29T03:12:22.571Z,743.71
2016-08-29T03:13:22.562Z,743.65
2016-08-29T03:14:22.550Z,743.67
2016-08-29T03:15:22.544Z,743.63
2016-08-29T03:16:22.545Z,743.64
2016-08-29T03:17:22.537Z,743.62
2016-08-29T03:18:22.525Z,743.6
2016-08-29T03:19:22.524Z,743.57
2016-08-29T03:20:22.517Z,743.64
2016-08-29T03:21:22.504Z,743.6
2016-08-29T03:22:22.498Z,743.59
2016-08-29T03:23:22.492Z,743.63
2016-08-29T03:24:22.491Z,743.6
2016-08-29T03:25:22.477Z,743.67
2016-08-29T03:26:22.476Z,743.61
2016-08-29T03:27:22.466Z,743.6
2016-08-29T03:28:22.459Z,743.61
2016-08-29T03:29:22.450Z,743.59
2016-08-29T03:30:22.460Z,743.56
2016-08-29T03:31:22.443Z,743.54
2016-08-29T03:32:22.435Z,743.59
2016-08-29T03:33:22.422Z,743.59
2016-08-29T03:34:22.422Z,743.62
2016-08-29T03:35:22.419Z,743.64
2016-08-29T03:36:22.408Z,743.71
2016-08-29T03:37:22.401Z,743.71
2016-08-29T03:38:22.394Z,743.75
2016-08-29T03:39:22.379Z,743.78
2016-08-29T03:40:22.374Z,743.76
2016-08-29T03:41:22.366Z,743.67
2016-08-29T03:42:22.358Z,743.65
2016-08-29T03:43:22.363Z,743.65
2016-08-29T03:44:22.355Z,743.6
2016-08-29T03:45:22.342Z,743.66
2016-08-29T03:46:22.334Z,743.68
2016-08-29T03:47:22.327Z,743.68
2016-08-29T03:48:22.313Z,743.59
2016-08-29T03:49:22.311Z,743.58
2016-08-29T03:50:22.295Z,743.61
2016-08-29T03:51:22.294Z,743.57
2016-08-29T03:52:22.280Z,743.6
2016-08-29T03:53:22.269Z,743.57
2016-08-29T03:54:22.287Z,743.66
2016-08-29T03:55:22.276Z,743.54
2016-08-29T03:56:22.246Z,743.49
2016-08-29T03:57:22.236Z,743.57
2016-08-29T03:58:22.235Z,743.6
2016-08-29T03:59:22.226Z,743.68
2016-08-29T04:00:22.210Z,743.67
2016-08-29T04:01:22.209Z,743.63
2016-08-29T04:02:22.191Z,743.76
2016-08-29T04:03:22.183Z,743.61
2016-08-29T04:04:22.180Z,743.71
2016-08-29T04:05:22.165Z,743.67
2016-08-29T04:06:22.155Z,743.74
2016-08-29T04:07:22.147Z,743.7
2016-08-29T04:08:22.144Z,743.73
2016-08-29T04:09:22.134Z,743.64
2016-08-29T04:10:22.234Z,743.67
2016-08-29T04:11:22.108Z,743.42
2016-08-29T04:12:22.105Z,743.43
2016-08-29T04:13:22.094Z,743.4
2016-08-29T04:14:22.087Z,743.6
2016-08-29T04:15:22.077Z,743.53
2016-08-29T04:16:22.060Z,743.52
2016-08-29T04:17:22.053Z,743.5
2016-08-29T04:18:22.044Z,743.52
2016-08-29T04:19:22.039Z,743.53
2016-08-29T04:20:22.025Z,743.51
2016-08-29T04:21:22.021Z,743.52
2016-08-29T04:22:22.005Z,743.5
2016-08-29T04:23:22.002Z,743.5
2016-08-29T04:24:21.994Z,743.53
2016-08-29T04:25:21.976Z,743.51
2016-08-29T04:26:21.966Z,743.53
2016-08-29T04:27:21.966Z,743.5
2016-08-29T04:28:21.957Z,743.52
2016-08-29T04:29:21.940Z,743.47
2016-08-29T04:30:21.932Z,743.41
2016-08-29T04:31:21.929Z,743.47
2016-08-29T04:32:21.921Z,743.48
2016-08-29T04:33:21.904Z,743.47
2016-08-29T04:34:21.895Z,743.45
2016-08-29T04:35:21.887Z,743.47
2016-08-29T04:36:21.884Z,743.51
2016-08-29T04:37:21.889Z,743.49
2016-08-29T04:38:21.867Z,743.53
2016-08-29T04:39:21.858Z,743.56
2016-08-29T04:40:21.842Z,743.53
2016-08-29T04:41:21.840Z,743.6
2016-08-29T04:42:21.831Z,743.57
2016-08-29T04:43:21.815Z,743.52
2016-08-29T04:44:21.814Z,743.54
2016-08-29T04:45:21.805Z,743.48
2016-08-29T04:46:21.790Z,743.5
2016-08-29T04:47:21.789Z,743.49
2016-08-29T04:48:21.780Z,743.48
2016-08-29T04:49:21.771Z,743.49
2016-08-29T04:50:21.756Z,743.5
2016-08-29T04:51:21.755Z,743.51
2016-08-29T04:52:21.746Z,743.5
2016-08-29T04:53:21.738Z,743.5
2016-08-29T04:54:21.723Z,743.56
2016-08-29T04:55:21.715Z,743.53
2016-08-29T04:56:21.713Z,743.51
2016-08-29T04:57:21.699Z,743.51
2016-08-29T04:58:21.696Z,743.49
2016-08-29T04:59:21.680Z,743.46
2016-08-29T05:00:21.671Z,743.45
2016-08-29T05:01:21.665Z,743.42
2016-08-29T05:02:21.656Z,743.45
2016-08-29T05:03:21.646Z,743.41
2016-08-29T05:04:21.646Z,743.39
2016-08-29T05:05:21.748Z,743.41
2016-08-29T05:06:21.621Z,743.41
2016-08-29T05:07:21.613Z,743.46
2016-08-29T05:08:21.613Z,743.44
2016-08-29T05:09:21.598Z,743.51
2016-08-29T05:10:21.597Z,743.52
2016-08-29T05:11:21.601Z,743.5
2016-08-29T05:12:21.580Z,743.53
2016-08-29T05:13:21.571Z,743.55
2016-08-29T05:14:21.562Z,743.53
2016-08-29T05:15:21.554Z,743.56
2016-08-29T05:16:21.539Z,743.52
2016-08-29T05:17:21.530Z,743.49
2016-08-29T05:18:21.522Z,743.51
2016-08-29T05:19:21.520Z,743.5
2016-08-29T05:20:21.511Z,743.48
2016-08-29T05:21:21.495Z,743.38
2016-08-29T05:22:21.493Z,743.41
2016-08-29T05:23:21.478Z,743.4
2016-08-29T05:24:21.475Z,743.47
2016-08-29T05:25:21.459Z,743.41
2016-08-29T05:26:21.458Z,743.41
2016-08-29T05:27:21.443Z,743.38
2016-08-29T05:28:21.433Z,743.34
2016-08-29T05:29:21.431Z,743.32
2016-08-29T05:30:21.423Z,743.26
2016-08-29T05:31:21.406Z,743.26
2016-08-29T05:32:21.399Z,743.37
2016-08-29T05:33:21.389Z,743.35
2016-08-29T05:34:21.381Z,743.37
2016-08-29T05:35:21.380Z,743.35
2016-08-29T05:36:21.371Z,743.4
2016-08-29T05:37:21.363Z,743.41
2016-08-29T05:38:21.354Z,743.49
2016-08-29T05:39:21.346Z,743.46
2016-08-29T05:40:21.339Z,743.42
2016-08-29T05:41:21.330Z,743.41
2016-08-29T05:42:21.321Z,743.45
2016-08-29T05:43:21.312Z,743.43
2016-08-29T05:44:21.297Z,743.47
2016-08-29T05:45:21.299Z,743.47
2016-08-29T05:46:21.281Z,743.41
2016-08-29T05:47:21.279Z,743.39
2016-08-29T05:48:21.265Z,743.28
2016-08-29T05:49:21.263Z,743.38
2016-08-29T05:50:21.254Z,743.31
2016-08-29T05:51:21.243Z,743.33
2016-08-29T05:52:21.231Z,743.26
2016-08-29T05:53:21.222Z,743.26
2016-08-29T05:54:21.220Z,743.16
2016-08-29T05:55:21.211Z,743.19
2016-08-29T05:56:21.196Z,743.25
2016-08-29T05:57:21.187Z,743.3
2016-08-29T05:58:21.185Z,743.29
2016-08-29T05:59:21.177Z,743.4
2016-08-29T06:00:21.477Z,743.37
2016-08-29T06:01:21.154Z,743.34
2016-08-29T06:02:21.145Z,743.34
2016-08-29T06:03:21.137Z,743.26
2016-08-29T06:04:21.135Z,743.31
2016-08-29T06:05:21.125Z,743.24
2016-08-29T06:06:21.111Z,743.31
2016-08-29T06:07:21.111Z,743.31
2016-08-29T06:08:21.095Z,743.33
2016-08-29T06:09:21.096Z,743.31
2016-08-29T06:10:21.097Z,743.33
2016-08-29T06:11:21.075Z,743.35
2016-08-29T06:12:21.071Z,743.35
2016-08-29T06:13:21.057Z,743.32
2016-08-29T06:14:21.050Z,743.3
2016-08-29T06:15:21.055Z,743.36
2016-08-29T06:16:21.036Z,743.37
2016-08-29T06:17:21.028Z,743.33
2016-08-29T06:18:21.021Z,743.31
2016-08-29T06:19:21.012Z,743.33
2016-08-29T06:20:21.222Z,743.36
2016-08-29T06:21:21.006Z,743.31
2016-08-29T06:22:20.992Z,743.3
2016-08-29T06:23:20.992Z,743.33
2016-08-29T06:24:20.978Z,743.31
2016-08-29T06:25:20.979Z,743.28
2016-08-29T06:26:20.968Z,743.3
2016-08-29T06:27:20.957Z,743.23
2016-08-29T06:28:20.953Z,743.25
2016-08-29T06:29:20.953Z,743.29
2016-08-29T06:30:20.945Z,743.28
2016-08-29T06:31:20.937Z,743.34
2016-08-29T06:32:20.931Z,743.31
2016-08-29T06:33:20.917Z,743.28
2016-08-29T06:34:20.909Z,743.29
2016-08-29T06:35:20.903Z,743.32
2016-08-29T06:36:20.903Z,743.31
2016-08-29T06:37:20.896Z,743.32
2016-08-29T06:38:20.881Z,743.4
2016-08-29T06:39:20.881Z,743.38
2016-08-29T06:40:20.875Z,743.38
2016-08-29T06:41:20.860Z,743.37
2016-08-29T06:42:20.852Z,743.41
2016-08-29T06:43:20.853Z,743.36
2016-08-29T06:44:20.839Z,743.39
2016-08-29T06:45:20.837Z,743.41
2016-08-29T06:46:20.828Z,743.43
2016-08-29T06:47:20.823Z,743.46
2016-08-29T06:48:20.816Z,743.47
2016-08-29T06:49:20.808Z,743.51
2016-08-29T06:50:20.806Z,743.53
2016-08-29T06:51:20.789Z,743.5
2016-08-29T06:52:20.787Z,743.46
2016-08-29T06:53:20.774Z,743.44
2016-08-29T06:54:20.774Z,743.36
2016-08-29T06:55:20.766Z,743.37
2016-08-29T06:56:20.759Z,743.33
2016-08-29T06:57:20.745Z,743.32
2016-08-29T06:58:20.745Z,743.33
2016-08-29T06:59:20.739Z,743.25
2016-08-29T07:00:20.730Z,743.27
2016-08-29T07:01:20.716Z,743.28
2016-08-29T07:02:20.717Z,743.26
2016-08-29T07:03:20.708Z,743.37
2016-08-29T07:04:20.694Z,743.36
2016-08-29T07:05:20.689Z,743.35
2016-08-29T07:06:20.680Z,743.33
2016-08-29T07:07:20.680Z,743.37
2016-08-29T07:08:20.679Z,743.39
2016-08-29T07:09:20.660Z,743.41
2016-08-29T07:10:20.659Z,743.44
2016-08-29T07:11:20.647Z,743.42
2016-08-29T07:12:20.639Z,743.42
2016-08-29T07:13:20.640Z,743.46
2016-08-29T07:14:20.626Z,743.47
2016-08-29T07:15:20.625Z,743.48
2016-08-29T07:16:20.620Z,743.47
2016-08-29T07:17:20.605Z,743.5
2016-08-29T07:18:20.598Z,743.46
2016-08-29T07:19:20.598Z,743.45
2016-08-29T07:20:20.584Z,743.49
2016-08-29T07:21:20.584Z,743.53
2016-08-29T07:22:20.571Z,743.47
2016-08-29T07:23:20.563Z,743.55
2016-08-29T07:24:20.557Z,743.55
2016-08-29T07:25:20.549Z,743.54
2016-08-29T07:26:20.549Z,743.52
2016-08-29T07:27:20.543Z,743.54
2016-08-29T07:28:20.536Z,743.48
2016-08-29T07:29:20.540Z,743.49
2016-08-29T07:30:20.521Z,743.57
2016-08-29T07:31:20.508Z,743.51
2016-08-29T07:32:20.500Z,743.5
2016-08-29T07:33:20.500Z,743.51
2016-08-29T07:34:20.493Z,743.53
2016-08-29T07:35:20.479Z,743.52
2016-08-29T07:36:20.472Z,743.5
2016-08-29T07:37:20.472Z,743.56
2016-08-29T07:38:20.457Z,743.49
2016-08-29T07:39:20.451Z,743.49
2016-08-29T07:40:20.561Z,743.49
2016-08-29T07:41:20.687Z,743.48
2016-08-29T07:42:20.435Z,743.49
2016-08-29T07:43:20.427Z,743.48
2016-08-29T07:44:20.420Z,743.5
2016-08-29T07:45:20.407Z,743.47
2016-08-29T07:46:20.407Z,743.52
2016-08-29T07:47:20.391Z,743.5
2016-08-29T07:48:20.385Z,743.51
2016-08-29T07:49:20.378Z,743.49
2016-08-29T07:50:20.372Z,743.47
2016-08-29T07:51:20.372Z,743.42
2016-08-29T07:52:20.365Z,743.48
2016-08-29T07:53:20.352Z,743.45
2016-08-29T07:54:20.351Z,743.44
2016-08-29T07:55:20.338Z,743.39
2016-08-29T07:56:20.339Z,743.41
2016-08-29T07:57:20.334Z,743.43
2016-08-29T07:58:20.321Z,743.45
2016-08-29T07:59:20.319Z,743.5
2016-08-29T08:00:20.315Z,743.49
2016-08-29T08:01:20.309Z,743.45
2016-08-29T08:02:20.295Z,743.5
2016-08-29T08:03:20.295Z,743.41
2016-08-29T08:04:20.290Z,743.44
2016-08-29T08:05:20.283Z,743.41
2016-08-29T08:06:20.276Z,743.41
2016-08-29T08:07:20.264Z,743.45
2016-08-29T08:08:20.257Z,743.44
2016-08-29T08:09:20.251Z,743.44
2016-08-29T08:10:20.251Z,743.43
2016-08-29T08:11:20.239Z,743.47
2016-08-29T08:12:20.239Z,743.45
2016-08-29T08:13:20.226Z,743.43
2016-08-29T08:14:20.219Z,743.45
2016-08-29T08:15:20.214Z,743.44
2016-08-29T08:16:20.213Z,743.47
2016-08-29T08:17:20.207Z,743.48
2016-08-29T08:18:20.201Z,743.43
2016-08-29T08:19:20.188Z,743.46
2016-08-29T08:20:20.180Z,743.46
2016-08-29T08:21:20.174Z,743.48
2016-08-29T08:22:20.172Z,743.44
2016-08-29T08:23:20.163Z,743.44
2016-08-29T08:24:20.163Z,743.43
2016-08-29T08:25:20.288Z,743.44
2016-08-29T08:26:20.144Z,743.47
2016-08-29T08:27:20.136Z,743.46
2016-08-29T08:28:20.138Z,743.46
2016-08-29T08:29:20.123Z,743.44
2016-08-29T08:30:20.118Z,743.44
2016-08-29T08:31:20.112Z,743.46
2016-08-29T08:32:20.105Z,743.45
2016-08-29T08:33:20.099Z,743.45
2016-08-29T08:34:20.094Z,743.47
2016-08-29T08:35:20.092Z,743.51
2016-08-29T08:36:20.086Z,743.53
2016-08-29T08:37:20.080Z,743.53
2016-08-29T08:38:20.066Z,743.52
2016-08-29T08:39:20.062Z,743.57
2016-08-29T08:40:20.062Z,743.55
2016-08-29T08:41:20.055Z,743.54
2016-08-29T08:42:20.038Z,743.52
2016-08-29T08:43:20.033Z,743.58
2016-08-29T08:44:20.025Z,743.56
2016-08-29T08:45:20.024Z,743.59
2016-08-29T08:46:20.009Z,743.58
2016-08-29T08:47:20.009Z,743.53
2016-08-29T08:48:20.001Z,743.57
2016-08-29T08:49:19.993Z,743.59
2016-08-29T08:50:19.977Z,743.55
2016-08-29T08:51:19.977Z,743.6
2016-08-29T08:52:19.969Z,743.56
2016-08-29T08:53:19.960Z,743.53
2016-08-29T08:54:19.945Z,743.5
2016-08-29T08:55:19.943Z,743.54
2016-08-29T08:56:19.928Z,743.52
2016-08-29T08:57:19.919Z,743.55
2016-08-29T08:58:19.911Z,743.55
2016-08-29T08:59:19.910Z,743.6
2016-08-29T09:00:20.539Z,743.59
2016-08-29T09:01:19.891Z,743.54
2016-08-29T09:02:19.877Z,743.56
2016-08-29T09:03:19.874Z,743.56
2016-08-29T09:04:19.858Z,743.53
2016-08-29T09:05:19.857Z,743.5
2016-08-29T09:06:19.848Z,743.55
2016-08-29T09:07:19.831Z,743.59
2016-08-29T09:08:19.822Z,743.64
2016-08-29T09:09:19.815Z,743.71
2016-08-29T09:10:19.806Z,743.74
2016-08-29T09:11:19.797Z,743.7
2016-08-29T09:12:19.795Z,743.72
2016-08-29T09:13:19.780Z,743.86
2016-08-29T09:14:19.783Z,743.79
2016-08-29T09:15:19.763Z,743.82
2016-08-29T09:16:19.753Z,743.89
2016-08-29T09:17:19.744Z,743.9
2016-08-29T09:18:19.742Z,743.93
2016-08-29T09:19:19.735Z,743.91
2016-08-29T09:20:19.725Z,743.86
2016-08-29T09:21:19.717Z,743.82
2016-08-29T09:22:19.701Z,743.9
2016-08-29T09:23:19.700Z,743.93
2016-08-29T09:24:19.692Z,743.87
2016-08-29T09:25:19.676Z,743.91
2016-08-29T09:26:19.666Z,743.86
2016-08-29T09:27:19.665Z,743.83
2016-08-29T09:28:19.649Z,743.83
2016-08-29T09:29:19.640Z,743.82
2016-08-29T09:30:19.632Z,743.8
2016-08-29T09:31:19.630Z,743.74
2016-08-29T09:32:19.621Z,743.74
2016-08-29T09:33:19.611Z,743.76
2016-08-29T09:34:19.596Z,743.72
2016-08-29T09:35:19.591Z,743.75
2016-08-29T09:36:19.579Z,743.7
2016-08-29T09:37:19.569Z,743.66
2016-08-29T09:38:19.565Z,743.66
2016-08-29T09:39:19.551Z,743.62
2016-08-29T09:40:19.540Z,743.54
2016-08-29T09:41:19.530Z,743.49
2016-08-29T09:42:19.530Z,743.55
2016-08-29T09:43:19.514Z,743.56
2016-08-29T09:44:19.509Z,743.47
2016-08-29T09:45:19.502Z,743.52
2016-08-29T09:46:19.487Z,743.59
2016-08-29T09:47:19.485Z,743.66
2016-08-29T09:48:19.469Z,743.7
2016-08-29T09:49:19.468Z,743.7
2016-08-29T09:50:19.460Z,743.69
2016-08-29T09:51:19.443Z,743.69
2016-08-29T09:52:19.443Z,743.67
2016-08-29T09:53:19.427Z,743.67
2016-08-29T09:54:19.427Z,743.7
2016-08-29T09:55:19.418Z,743.69
2016-08-29T09:56:19.411Z,743.67
2016-08-29T09:57:19.402Z,743.6
2016-08-29T09:58:19.394Z,743.57
2016-08-29T09:59:19.379Z,743.53
2016-08-29T10:00:19.377Z,743.53
2016-08-29T10:01:19.363Z,743.61
2016-08-29T10:02:19.354Z,743.64
2016-08-29T10:03:19.351Z,743.61
2016-08-29T10:04:19.343Z,743.61
2016-08-29T10:05:19.399Z,743.6
2016-08-29T10:06:19.325Z,743.56
2016-08-29T10:07:19.311Z,743.61
2016-08-29T10:08:19.302Z,743.55
2016-08-29T10:09:19.300Z,743.66
2016-08-29T10:10:19.283Z,743.63
2016-08-29T10:11:19.275Z,743.67
2016-08-29T10:12:19.273Z,743.66
2016-08-29T10:13:19.262Z,743.64
2016-08-29T10:14:19.248Z,743.65
2016-08-29T10:15:19.502Z,743.63
2016-08-29T10:16:19.234Z,743.59
2016-08-29T10:17:19.218Z,743.7
2016-08-29T10:18:19.210Z,743.67
2016-08-29T10:19:19.200Z,743.64
2016-08-29T10:20:19.191Z,743.64
2016-08-29T10:21:19.182Z,743.65
2016-08-29T10:22:19.172Z,743.57
2016-08-29T10:23:19.188Z,743.63
2016-08-29T10:24:19.158Z,743.64
2016-08-29T10:25:19.149Z,743.59
2016-08-29T10:26:19.143Z,743.6
2016-08-29T10:27:19.271Z,743.61
2016-08-29T10:28:19.112Z,743.65
2016-08-29T10:29:19.109Z,743.64
2016-08-29T10:30:19.099Z,743.65
2016-08-29T10:31:19.087Z,743.59
2016-08-29T10:32:19.071Z,743.64
2016-08-29T10:33:19.068Z,743.77
2016-08-29T10:34:19.058Z,743.88
2016-08-29T10:35:19.046Z,743.86
2016-08-29T10:36:19.038Z,743.76
2016-08-29T10:37:19.020Z,743.79
2016-08-29T10:38:19.011Z,743.81
2016-08-29T10:39:19.006Z,743.76
2016-08-29T10:40:18.989Z,743.56
2016-08-29T10:41:18.979Z,743.82
2016-08-29T10:42:18.967Z,743.8
2016-08-29T10:43:18.958Z,743.66
2016-08-29T10:44:18.947Z,743.72
2016-08-29T10:45:18.938Z,743.68
2016-08-29T10:46:18.933Z,743.68
2016-08-29T10:47:18.922Z,743.64
2016-08-29T10:48:18.905Z,743.63
2016-08-29T10:49:18.901Z,743.71
2016-08-29T10:50:18.891Z,743.55
2016-08-29T10:51:18.873Z,743.67
2016-08-29T10:52:18.870Z,743.73
2016-08-29T10:53:18.858Z,743.59
2016-08-29T10:54:18.842Z,743.72
2016-08-29T10:55:18.837Z,743.63
2016-08-29T10:56:18.828Z,743.61
2016-08-29T10:57:18.815Z,743.73
2016-08-29T10:58:18.805Z,743.71
2016-08-29T10:59:18.795Z,743.59
2016-08-29T11:00:18.784Z,743.59
2016-08-29T11:01:18.772Z,743.62
2016-08-29T11:02:18.755Z,743.7
2016-08-29T11:03:18.752Z,743.64
2016-08-29T11:04:18.733Z,743.59
2016-08-29T11:05:18.729Z,743.6
2016-08-29T11:06:18.719Z,743.71
2016-08-29T11:07:18.703Z,743.66
2016-08-29T11:08:18.697Z,743.65
2016-08-29T11:09:18.679Z,743.59
2016-08-29T11:10:18.677Z,743.58
2016-08-29T11:11:18.666Z,743.56
2016-08-29T11:12:18.654Z,743.5
2016-08-29T11:13:18.644Z,743.51
2016-08-29T11:14:18.634Z,743.47
2016-08-29T11:15:18.615Z,743.48
2016-08-29T11:16:18.605Z,743.47
2016-08-29T11:17:18.596Z,743.55
2016-08-29T11:18:18.611Z,743.59
2016-08-29T11:19:18.580Z,743.64
2016-08-29T11:20:18.564Z,743.64
2016-08-29T11:21:18.560Z,743.61
2016-08-29T11:22:18.549Z,743.55
2016-08-29T11:23:18.539Z,743.59
2016-08-29T11:24:18.529Z,743.59
2016-08-29T11:25:18.511Z,743.5
2016-08-29T11:26:18.500Z,743.5
2016-08-29T11:27:18.497Z,743.59
2016-08-29T11:28:18.490Z,743.56
2016-08-29T11:29:18.475Z,743.51
2016-08-29T11:30:18.460Z,743.55
2016-08-29T11:31:18.450Z,743.7
2016-08-29T11:32:18.441Z,743.47
2016-08-29T11:33:18.430Z,743.5
2016-08-29T11:34:18.426Z,743.59
2016-08-29T11:35:18.417Z,743.57
2016-08-29T11:36:18.407Z,743.61
2016-08-29T11:37:18.396Z,743.57
2016-08-29T11:38:18.379Z,743.56
2016-08-29T11:39:18.377Z,743.52
2016-08-29T11:40:18.367Z,743.58
2016-08-29T11:41:18.351Z,743.63
2016-08-29T11:42:18.340Z,743.62
2016-08-29T11:43:18.329Z,743.65
2016-08-29T11:44:18.328Z,743.55
2016-08-29T11:45:18.311Z,743.54
2016-08-29T11:46:18.303Z,743.6
2016-08-29T11:47:18.299Z,743.57
2016-08-29T11:48:18.289Z,743.56
2016-08-29T11:49:18.279Z,743.56
2016-08-29T11:50:18.270Z,743.59
2016-08-29T11:51:18.261Z,743.55
2016-08-29T11:52:18.250Z,743.47
2016-08-29T11:53:18.241Z,743.47
2016-08-29T11:54:18.232Z,743.4
2016-08-29T11:55:18.216Z,743.48
2016-08-29T11:56:18.215Z,743.56
2016-08-29T11:57:18.204Z,743.56
2016-08-29T11:58:18.189Z,743.58
2016-08-29T11:59:18.186Z,743.56
2016-08-29T12:00:18.177Z,743.65
2016-08-29T12:01:18.162Z,743.49
2016-08-29T12:02:18.160Z,743.47
2016-08-29T12:03:18.144Z,743.33
2016-08-29T12:04:18.142Z,743.34
2016-08-29T12:05:18.133Z,743.4
2016-08-29T12:06:18.117Z,743.4
2016-08-29T12:07:18.107Z,743.46
2016-08-29T12:08:18.099Z,743.51
2016-08-29T12:09:18.097Z,743.32
2016-08-29T12:10:18.081Z,743.36
2016-08-29T12:11:18.072Z,743.26
2016-08-29T12:12:18.062Z,743.37
2016-08-29T12:13:18.056Z,743.36
2016-08-29T12:14:18.053Z,743.41
2016-08-29T12:15:18.050Z,743.43
2016-08-29T12:16:18.036Z,743.42
2016-08-29T12:17:18.020Z,743.42
2016-08-29T12:18:18.011Z,743.48
2016-08-29T12:19:18.005Z,743.5
2016-08-29T12:20:17.994Z,743.49
2016-08-29T12:21:17.994Z,743.44
2016-08-29T12:22:17.986Z,743.44
2016-08-29T12:23:17.977Z,743.46
2016-08-29T12:24:17.964Z,743.43
2016-08-29T12:25:17.956Z,743.45
2016-08-29T12:26:17.954Z,743.46
2016-08-29T12:27:17.942Z,743.46
2016-08-29T12:28:17.938Z,743.47
2016-08-29T12:29:17.924Z,743.43
2016-08-29T12:30:17.937Z,743.42
2016-08-29T12:31:17.917Z,743.33